TimeEST,TemperatureF,Dew PointF,Humidity,Sea Level PressureIn,VisibilityMPH,Wind Direction,Wind SpeedMPH,Gust SpeedMPH,PrecipitationIn,Events,Conditions,WindDirDegrees,DateUTC
12:13 AM,44.6,42.8,93,29.98,3.0,Calm,Calm,-,0.00,,Overcast,0,2012-12-03 05:13:00
12:24 AM,44.6,42.8,93,29.98,2.0,Calm,Calm,-,0.00,,Overcast,0,2012-12-03 05:24:00
12:36 AM,44.6,44.6,100,29.98,3.0,Calm,Calm,-,0.00,,Overcast,0,2012-12-03 05:36:00
12:51 AM,44.1,43.0,96,29.97,2.5,Calm,Calm,-,0.00,,Overcast,0,2012-12-03 05:51:00
1:05 AM,44.6,44.6,100,29.97,3.0,Calm,Calm,-,N/A,,Overcast,0,2012-12-03 06:05:00
1:22 AM,44.6,44.6,100,29.97,3.0,Calm,Calm,-,N/A,,Overcast,0,2012-12-03 06:22:00
1:49 AM,44.6,42.8,93,29.97,2.5,Calm,Calm,-,N/A,,Mostly Cloudy,0,2012-12-03 06:49:00
1:51 AM,45.0,43.0,93,29.98,2.5,Calm,Calm,-,N/A,,Mostly Cloudy,0,2012-12-03 06:51:00
2:00 AM,44.6,42.8,93,29.97,3.0,Calm,Calm,-,N/A,,Mostly Cloudy,0,2012-12-03 07:00:00
2:17 AM,44.6,42.8,93,29.98,2.5,Calm,Calm,-,N/A,,Partly Cloudy,0,2012-12-03 07:17:00
2:24 AM,44.6,42.8,93,29.98,4.0,Calm,Calm,-,N/A,,Partly Cloudy,0,2012-12-03 07:24:00
2:30 AM,44.6,42.8,93,29.97,2.0,Calm,Calm,-,N/A,,Scattered Clouds,0,2012-12-03 07:30:00
2:37 AM,44.6,42.8,93,29.97,1.5,Calm,Calm,-,N/A,,Scattered Clouds,0,2012-12-03 07:37:00
2:46 AM,44.6,42.8,93,29.97,3.0,Calm,Calm,-,N/A,,Partly Cloudy,0,2012-12-03 07:46:00
2:51 AM,45.0,43.0,93,29.97,3.0,Calm,Calm,-,N/A,,Partly Cloudy,0,2012-12-03 07:51:00
3:00 AM,44.6,42.8,93,29.97,1.5,Calm,Calm,-,N/A,,Partly Cloudy,0,2012-12-03 08:00:00
3:19 AM,42.8,42.8,100,29.97,0.5,Calm,Calm,-,N/A,Fog,Fog,0,2012-12-03 08:19:00
3:24 AM,44.6,42.8,93,29.97,1.2,Calm,Calm,-,N/A,,Mostly Cloudy,0,2012-12-03 08:24:00
3:30 AM,44.6,42.8,93,29.98,3.0,Calm,Calm,-,N/A,,Mostly Cloudy,0,2012-12-03 08:30:00
3:36 AM,44.6,42.8,93,29.97,2.5,Calm,Calm,-,N/A,,Scattered Clouds,0,2012-12-03 08:36:00
3:44 AM,44.6,42.8,93,29.98,1.5,Calm,Calm,-,N/A,,Scattered Clouds,0,2012-12-03 08:44:00
3:51 AM,44.1,42.1,93,29.98,3.0,Calm,Calm,-,N/A,,Partly Cloudy,0,2012-12-03 08:51:00
4:03 AM,44.6,42.8,93,29.98,2.5,Calm,Calm,-,N/A,,Partly Cloudy,0,2012-12-03 09:03:00
4:09 AM,42.8,42.8,100,29.98,1.5,Calm,Calm,-,N/A,,Partly Cloudy,0,2012-12-03 09:09:00
4:16 AM,42.8,41.0,93,29.98,0.8,Calm,Calm,-,N/A,,Mist,0,2012-12-03 09:16:00
4:34 AM,42.8,41.0,93,29.98,1.2,Calm,Calm,-,N/A,,Scattered Clouds,0,2012-12-03 09:34:00
4:38 AM,42.8,41.0,93,29.98,0.8,Calm,Calm,-,N/A,,Mist,0,2012-12-03 09:38:00
4:51 AM,42.1,41.0,96,29.98,0.2,Variable,3.5,-,N/A,Fog,Fog,0,2012-12-03 09:51:00
5:00 AM,42.8,41.0,93,29.99,0.8,Calm,Calm,-,N/A,,Mist,0,2012-12-03 10:00:00
5:16 AM,39.2,39.2,100,30.00,0.2,Calm,Calm,-,N/A,Fog,Fog,0,2012-12-03 10:16:00
5:27 AM,41.0,39.2,93,30.00,0.8,Calm,Calm,-,N/A,,Mostly Cloudy,0,2012-12-03 10:27:00
5:37 AM,42.8,41.0,93,29.99,1.2,Variable,3.5,-,N/A,,Scattered Clouds,0,2012-12-03 10:37:00
5:40 AM,42.8,42.8,100,29.99,3.0,West,3.5,-,N/A,,Scattered Clouds,260,2012-12-03 10:40:00
5:51 AM,44.1,43.0,96,30.00,6.0,Calm,Calm,-,N/A,,Partly Cloudy,0,2012-12-03 10:51:00
6:04 AM,41.0,39.2,93,30.01,1.8,Calm,Calm,-,N/A,,Clear,0,2012-12-03 11:04:00
6:13 AM,41.0,39.2,93,30.01,1.2,Calm,Calm,-,N/A,,Partly Cloudy,0,2012-12-03 11:13:00
6:15 AM,39.2,37.4,93,30.02,0.8,East,3.5,-,N/A,,Mist,90,2012-12-03 11:15:00
6:24 AM,37.4,37.4,100,30.02,0.2,ENE,3.5,-,N/A,Fog,Fog,70,2012-12-03 11:24:00
6:34 AM,41.0,39.2,93,30.02,0.8,Calm,Calm,-,N/A,,Mist,0,2012-12-03 11:34:00
6:39 AM,39.2,39.2,100,30.03,1.0,Calm,Calm,-,N/A,,Scattered Clouds,0,2012-12-03 11:39:00
6:49 AM,39.2,37.4,93,30.03,0.5,Variable,3.5,-,N/A,Fog,Fog,0,2012-12-03 11:49:00
6:51 AM,39.9,39.0,97,30.03,0.5,Calm,Calm,-,N/A,Fog,Fog,0,2012-12-03 11:51:00
7:09 AM,41.0,39.2,93,30.03,0.2,Calm,Calm,-,N/A,Fog,Fog,0,2012-12-03 12:09:00
7:15 AM,42.8,41.0,93,30.03,1.5,SW,3.5,-,N/A,,Overcast,230,2012-12-03 12:15:00
7:19 AM,42.8,42.8,100,30.04,3.0,Calm,Calm,-,N/A,,Overcast,0,2012-12-03 12:19:00
7:51 AM,45.0,44.1,97,30.05,4.0,Calm,Calm,-,N/A,,Mostly Cloudy,0,2012-12-03 12:51:00
8:51 AM,48.9,44.1,83,30.07,10.0,Variable,5.8,-,N/A,,Scattered Clouds,0,2012-12-03 13:51:00
9:51 AM,52.0,42.1,69,30.08,10.0,WNW,13.8,20.7,N/A,,Clear,290,2012-12-03 14:51:00
10:51 AM,54.0,39.9,59,30.10,10.0,WNW,12.7,18.4,N/A,,Partly Cloudy,300,2012-12-03 15:51:00
11:51 AM,53.1,37.0,55,30.10,10.0,WNW,12.7,23.0,N/A,,Clear,300,2012-12-03 16:51:00
12:51 PM,54.0,37.9,55,30.11,10.0,NW,11.5,-,N/A,,Clear,310,2012-12-03 17:51:00
1:51 PM,53.1,36.0,52,30.12,10.0,NW,13.8,20.7,N/A,,Clear,320,2012-12-03 18:51:00
2:51 PM,51.1,35.1,54,30.13,10.0,NW,13.8,18.4,N/A,,Clear,310,2012-12-03 19:51:00
3:51 PM,48.9,34.0,56,30.17,10.0,Calm,Calm,-,N/A,,Clear,0,2012-12-03 20:51:00
4:51 PM,44.1,34.0,68,30.19,10.0,Calm,Calm,-,N/A,,Clear,0,2012-12-03 21:51:00
5:51 PM,44.1,34.0,68,30.21,10.0,Calm,Calm,-,N/A,,Clear,0,2012-12-03 22:51:00
6:51 PM,41.0,33.1,73,30.24,10.0,NW,3.5,-,N/A,,Clear,320,2012-12-03 23:51:00
7:51 PM,36.0,32.0,86,30.26,10.0,Calm,Calm,-,N/A,,Clear,0,2012-12-04 00:51:00
9:51 PM,35.1,32.0,89,30.29,10.0,Calm,Calm,-,N/A,,Clear,0,2012-12-04 02:51:00
10:51 PM,30.9,28.9,92,30.30,10.0,NW,5.8,-,N/A,,Clear,310,2012-12-04 03:51:00
11:51 PM,28.9,27.0,92,30.30,8.0,NW,6.9,-,N/A,,Clear,320,2012-12-04 04:51:00